Аэропорт: Кызылорда. Кызылорда

ICAO: UAOO

METAR:
2018/05/20 23:00
UAOO 202300Z 05004MPS CAVOK 13/M06 Q1020 NOSIG RMK QFE753/1005
METAR:
2018/04/18 00:06
TAF TAF UAOO 172300Z 1700/1809 27006MPS 9999 SCT033 BKN100